createdAt,value
2022-09-21T00:01:19.116Z,99133.19
2022-09-21T00:03:46.820Z,99130.63
2022-09-21T00:06:17.628Z,99138.41
2022-09-21T00:08:46.134Z,99123.66
2022-09-21T00:11:15.421Z,99134.94
2022-09-21T00:13:44.450Z,99129.72
2022-09-21T00:16:11.714Z,99110.66
2022-09-21T00:18:38.933Z,99116.72
2022-09-21T00:21:11.233Z,99128.00
2022-09-21T00:23:38.673Z,99117.59
2022-09-21T00:26:20.986Z,99111.53
2022-09-21T00:28:54.151Z,99093.28
2022-09-21T00:31:21.564Z,99138.41
2022-09-21T00:33:51.381Z,99141.91
2022-09-21T00:36:21.403Z,99138.41
2022-09-21T00:38:53.927Z,99137.56
2022-09-21T00:41:21.884Z,99108.94
2022-09-21T00:44:10.853Z,99127.13
2022-09-21T00:46:40.507Z,99138.41
2022-09-21T00:49:09.079Z,99133.19
2022-09-21T00:51:40.417Z,99129.75
2022-09-21T00:54:15.404Z,99123.66
2022-09-21T00:56:44.866Z,99139.28
2022-09-21T00:59:15.141Z,99134.06
2022-09-21T01:01:43.056Z,99123.63
2022-09-21T01:04:12.105Z,99124.50
2022-09-21T01:06:41.249Z,99125.31
2022-09-21T01:09:10.346Z,99121.84
2022-09-21T01:11:59.546Z,99111.41
2022-09-21T01:14:45.628Z,99120.94
2022-09-21T01:17:41.545Z,99124.41
2022-09-21T01:20:24.684Z,99055.03
2022-09-21T01:23:33.408Z,99107.09
2022-09-21T01:26:19.484Z,99104.47
2022-09-21T01:29:17.520Z,99127.88
2022-09-21T01:32:00.649Z,99127.88
2022-09-21T01:34:33.381Z,99110.50
2022-09-21T01:37:06.923Z,99119.19
2022-09-21T01:39:36.621Z,99114.81
2022-09-21T01:42:07.405Z,99125.22
2022-09-21T01:44:38.456Z,99106.16
2022-09-21T01:47:09.510Z,99126.16
2022-09-21T01:49:40.583Z,99116.63
2022-09-21T01:52:18.179Z,99128.78
2022-09-21T01:54:58.926Z,99115.78
2022-09-21T01:58:12.070Z,99130.53
2022-09-21T02:00:42.240Z,99126.22
2022-09-21T02:03:20.576Z,99140.06
2022-09-21T02:05:48.593Z,99143.56
2022-09-21T02:08:16.048Z,99129.69
2022-09-21T02:10:51.034Z,99126.22
2022-09-21T02:13:20.479Z,99144.41
2022-09-21T02:16:08.238Z,99147.91
2022-09-21T02:18:58.362Z,99144.41
2022-09-21T02:22:00.891Z,99144.41
2022-09-21T02:24:38.343Z,99147.88
2022-09-21T02:27:25.206Z,99149.59
2022-09-21T02:30:05.027Z,99148.72
2022-09-21T02:32:59.332Z,99153.06
2022-09-21T02:35:37.858Z,99137.41
2022-09-21T02:38:23.071Z,99151.28
2022-09-21T02:41:17.216Z,99140.84
2022-09-21T02:43:56.036Z,99144.28
2022-09-21T02:46:32.686Z,99128.63
2022-09-21T02:49:09.413Z,99124.28
2022-09-21T02:51:44.049Z,99136.41
2022-09-21T02:54:16.826Z,99126.84
2022-09-21T02:56:49.210Z,99124.19
2022-09-21T02:59:21.466Z,99139.75
2022-09-21T03:01:49.991Z,99130.19
2022-09-21T03:04:17.516Z,99146.66
2022-09-21T03:06:44.600Z,99137.06
2022-09-21T03:09:11.614Z,99146.59
2022-09-21T03:11:39.224Z,99131.84
2022-09-21T03:14:09.165Z,99131.81
2022-09-21T03:16:36.996Z,99138.75
2022-09-21T03:19:04.856Z,99137.88
2022-09-21T03:21:32.275Z,99123.09
2022-09-21T03:23:59.233Z,99122.22
2022-09-21T03:26:26.329Z,99095.34
2022-09-21T03:28:56.129Z,99114.34
2022-09-21T03:31:23.209Z,99116.00
2022-09-21T03:33:50.926Z,99116.84
2022-09-21T03:36:18.371Z,99122.06
2022-09-21T03:38:45.631Z,99129.81
2022-09-21T03:41:15.298Z,99128.03
2022-09-21T03:43:42.396Z,99122.75
2022-09-21T03:46:09.464Z,99108.78
2022-09-21T03:48:36.499Z,99131.25
2022-09-21T03:51:03.724Z,99119.06
2022-09-21T03:53:30.823Z,99119.84
2022-09-21T03:55:57.930Z,99133.63
2022-09-21T03:58:25.079Z,99133.53
2022-09-21T04:00:52.940Z,99115.25
2022-09-21T04:03:20.039Z,99122.97
2022-09-21T04:05:47.142Z,99126.41
2022-09-21T04:08:14.355Z,99132.38
2022-09-21T04:10:44.078Z,99117.59
2022-09-21T04:13:12.749Z,99105.41
2022-09-21T04:15:40.011Z,99113.94
2022-09-21T04:18:07.880Z,99106.00
2022-09-21T04:20:34.942Z,99131.09
2022-09-21T04:23:02.009Z,99113.66
2022-09-21T04:25:29.268Z,99123.97
2022-09-21T04:27:56.271Z,99111.72
2022-09-21T04:30:23.317Z,99109.91
2022-09-21T04:32:50.422Z,99127.06
2022-09-21T04:35:17.491Z,99141.72
2022-09-21T04:37:44.540Z,99119.03
2022-09-21T04:40:11.749Z,99141.31
2022-09-21T04:42:39.723Z,99146.38
2022-09-21T04:45:08.010Z,99147.19
2022-09-21T04:47:37.719Z,99129.72
2022-09-21T04:50:05.540Z,99140.91
2022-09-21T04:52:32.597Z,99139.69
2022-09-21T04:54:59.823Z,99150.66
2022-09-21T04:57:26.887Z,99146.00
2022-09-21T04:59:54.287Z,99143.97
2022-09-21T05:02:21.456Z,99145.38
2022-09-21T05:04:51.108Z,99142.53
2022-09-21T05:07:18.575Z,99143.97
2022-09-21T05:10:03.746Z,99146.13
2022-09-21T05:12:39.712Z,99146.56
2022-09-21T05:15:10.574Z,99142.50
2022-09-21T05:17:38.082Z,99145.25
2022-09-21T05:20:06.237Z,99131.63
2022-09-21T05:22:33.507Z,99140.06
2022-09-21T05:25:00.671Z,99130.03
2022-09-21T05:27:27.751Z,99141.53
2022-09-21T05:29:55.427Z,99136.44
2022-09-21T05:32:22.548Z,99143.69
2022-09-21T05:35:02.686Z,99134.56
2022-09-21T05:37:37.977Z,99137.50
2022-09-21T05:40:09.679Z,99134.19
2022-09-21T05:42:38.614Z,99141.25
2022-09-21T05:45:19.117Z,99131.00
2022-09-21T05:47:56.844Z,99122.00
2022-09-21T05:50:30.228Z,99144.56
2022-09-21T05:53:12.723Z,99145.53
2022-09-21T05:55:40.308Z,99127.22
2022-09-21T05:58:38.111Z,99142.00
2022-09-21T06:01:17.603Z,99143.19
2022-09-21T06:03:46.383Z,99136.09
2022-09-21T06:06:13.494Z,99128.72
2022-09-21T06:08:41.370Z,99137.88
2022-09-21T06:11:08.993Z,99111.88
2022-09-21T06:13:37.633Z,99129.31
2022-09-21T06:16:05.656Z,99133.66
2022-09-21T06:18:39.420Z,99125.03
2022-09-21T06:21:07.624Z,99132.56
2022-09-21T06:23:35.537Z,99131.50
2022-09-21T06:26:03.458Z,99133.31
2022-09-21T06:28:31.744Z,99136.16
2022-09-21T06:30:59.625Z,99142.72
2022-09-21T06:33:40.051Z,99141.63
2022-09-21T06:36:10.721Z,99151.25
2022-09-21T06:38:46.011Z,99141.69
2022-09-21T06:41:20.978Z,99142.38
2022-09-21T06:43:54.926Z,99120.44
2022-09-21T06:46:26.148Z,99136.78
2022-09-21T06:48:55.236Z,99144.03
2022-09-21T06:51:48.915Z,99141.13
2022-09-21T06:54:19.803Z,99129.81
2022-09-21T06:56:47.521Z,99152.91
2022-09-21T06:59:27.452Z,99142.31
2022-09-21T07:01:58.498Z,99153.63
2022-09-21T07:04:26.477Z,99128.50
2022-09-21T07:06:54.019Z,99156.50
2022-09-21T07:12:08.450Z,99130.84
2022-09-21T07:14:35.761Z,99125.38
2022-09-21T07:17:02.988Z,99152.91
2022-09-21T07:19:30.416Z,99138.19
2022-09-21T07:21:58.435Z,99144.94
2022-09-21T07:24:26.041Z,99141.13
2022-09-21T07:26:53.497Z,99123.06
2022-09-21T07:29:20.852Z,99117.66
2022-09-21T07:31:48.596Z,99143.81
2022-09-21T07:34:16.315Z,99111.75
2022-09-21T07:36:43.767Z,99142.69
2022-09-21T07:39:11.033Z,99129.28
2022-09-21T07:41:38.545Z,99151.00
2022-09-21T07:44:06.516Z,99149.50
2022-09-21T07:46:33.928Z,99125.53
2022-09-21T07:49:01.047Z,99157.03
2022-09-21T07:51:29.876Z,99147.84
2022-09-21T07:53:58.153Z,99136.59
2022-09-21T07:56:26.488Z,99154.66
2022-09-21T07:59:09.195Z,99145.16
2022-09-21T08:01:41.764Z,99152.63
2022-09-21T08:04:11.631Z,99144.19
2022-09-21T08:06:42.692Z,99158.22
2022-09-21T08:09:09.987Z,99159.13
2022-09-21T08:11:45.374Z,99138.91
2022-09-21T08:14:26.040Z,99137.00
2022-09-21T08:16:54.107Z,99146.16
2022-09-21T08:19:26.076Z,99129.75
2022-09-21T08:21:57.487Z,99140.88
2022-09-21T08:24:28.543Z,99136.84
2022-09-21T08:27:05.030Z,99128.38
2022-09-21T08:29:32.468Z,99137.91
2022-09-21T08:32:00.181Z,99127.13
2022-09-21T08:34:28.439Z,99108.44
2022-09-21T08:36:56.049Z,99134.63
2022-09-21T08:39:24.375Z,99122.38
2022-09-21T08:42:23.948Z,99127.50
2022-09-21T08:45:00.510Z,99134.72
2022-09-21T08:47:37.012Z,99127.50
2022-09-21T08:50:14.102Z,99104.00
2022-09-21T08:52:41.682Z,99119.06
2022-09-21T08:55:30.437Z,99128.97
2022-09-21T08:57:59.329Z,99115.63
2022-09-21T09:00:26.800Z,99115.41
2022-09-21T09:03:09.726Z,99121.31
2022-09-21T09:05:50.218Z,99116.44
2022-09-21T09:08:52.529Z,99115.84
2022-09-21T09:11:48.413Z,99112.00
2022-09-21T09:14:39.826Z,99108.19
2022-09-21T09:17:54.277Z,99110.56
2022-09-21T09:20:21.461Z,99103.13
2022-09-21T09:23:00.226Z,99100.75
2022-09-21T09:25:32.636Z,99090.69
2022-09-21T09:28:06.320Z,99095.09
2022-09-21T09:30:36.030Z,99101.72
2022-09-21T09:33:17.611Z,99098.72
2022-09-21T09:35:50.268Z,99106.53
2022-09-21T09:38:20.486Z,99106.00
2022-09-21T09:40:54.397Z,99108.31
2022-09-21T09:43:30.271Z,99101.34
2022-09-21T09:46:13.465Z,99088.75
2022-09-21T09:49:05.138Z,99095.91
2022-09-21T09:51:37.554Z,99099.53
2022-09-21T09:54:09.509Z,99088.47
2022-09-21T09:56:37.949Z,99084.69
2022-09-21T09:59:14.093Z,99100.44
2022-09-21T10:01:47.517Z,99092.88
2022-09-21T10:04:17.696Z,99096.19
2022-09-21T10:06:46.981Z,99102.09
2022-09-21T10:09:25.943Z,99102.28
2022-09-21T10:11:58.341Z,99099.38
2022-09-21T10:14:29.717Z,99099.19
2022-09-21T10:17:07.519Z,99077.06
2022-09-21T10:19:34.669Z,99096.41
2022-09-21T10:22:04.479Z,99082.28
2022-09-21T10:24:38.999Z,99092.38
2022-09-21T10:27:07.334Z,99077.41
2022-09-21T10:29:42.129Z,99084.84
2022-09-21T10:32:14.555Z,99101.72
2022-09-21T10:34:59.873Z,99093.66
2022-09-21T10:37:29.894Z,99080.53
2022-09-21T10:40:00.218Z,99087.66
2022-09-21T10:42:35.363Z,99083.22
2022-09-21T10:45:27.112Z,99076.38
2022-09-21T10:48:07.092Z,99062.75
2022-09-21T10:50:39.049Z,99073.13
2022-09-21T10:53:09.034Z,99079.81
2022-09-21T10:55:58.380Z,99047.56
2022-09-21T10:58:34.783Z,99064.56
2022-09-21T11:01:15.054Z,99051.72
2022-09-21T11:04:06.929Z,99048.72
2022-09-21T11:06:40.365Z,99065.16
2022-09-21T11:09:16.825Z,99062.25
2022-09-21T11:11:53.396Z,99068.78
2022-09-21T11:14:20.376Z,99059.91
2022-09-21T11:17:12.668Z,99073.84
2022-09-21T11:19:59.171Z,99070.13
2022-09-21T11:22:57.751Z,99062.41
2022-09-21T11:25:25.336Z,99074.53
2022-09-21T11:27:59.687Z,99054.28
2022-09-21T11:30:50.821Z,99062.81
2022-09-21T11:33:50.757Z,99062.81
2022-09-21T11:36:46.955Z,99062.78
2022-09-21T11:39:44.990Z,99004.56
2022-09-21T11:42:31.675Z,99043.63
2022-09-21T11:45:10.673Z,99058.06
2022-09-21T11:48:06.780Z,99049.91
2022-09-21T11:50:44.468Z,99048.38
2022-09-21T11:53:33.402Z,99030.22
2022-09-21T11:56:12.655Z,99054.03
2022-09-21T11:59:08.784Z,99056.56
2022-09-21T12:02:03.901Z,99043.25
2022-09-21T12:05:00.346Z,99044.63
2022-09-21T12:07:51.725Z,99048.19
2022-09-21T12:10:56.317Z,99023.25
2022-09-21T12:13:51.969Z,99032.13
2022-09-21T12:16:22.041Z,99043.47
2022-09-21T12:18:55.658Z,99044.44
2022-09-21T12:21:30.495Z,99040.69
2022-09-21T12:24:05.674Z,99035.53
2022-09-21T12:26:41.752Z,99049.31
2022-09-21T12:29:47.407Z,99046.59
2022-09-21T12:32:20.387Z,99040.03
2022-09-21T12:34:50.486Z,99039.16
2022-09-21T12:37:45.585Z,99044.28
2022-09-21T12:40:15.885Z,99044.72
2022-09-21T12:42:48.817Z,99027.16
2022-09-21T12:45:32.441Z,99037.88
2022-09-21T12:48:26.877Z,99055.91
2022-09-21T12:51:15.766Z,99029.13
2022-09-21T12:53:50.916Z,99049.03
2022-09-21T12:56:53.565Z,99042.09
2022-09-21T12:59:37.078Z,99034.56
2022-09-21T13:02:26.528Z,99031.22
2022-09-21T13:05:23.790Z,99031.00
2022-09-21T13:08:15.147Z,99026.72
2022-09-21T13:11:01.460Z,99040.78
2022-09-21T13:13:37.865Z,99032.97
2022-09-21T13:16:33.126Z,99046.31
2022-09-21T13:19:02.931Z,99042.59
2022-09-21T13:21:32.932Z,99027.94
2022-09-21T13:24:02.969Z,99028.03
2022-09-21T13:26:53.848Z,99026.56
2022-09-21T13:29:21.277Z,98993.75
2022-09-21T13:32:04.776Z,99026.34
2022-09-21T13:34:43.247Z,99023.84
2022-09-21T13:37:15.482Z,99029.91
2022-09-21T13:40:04.117Z,99030.78
2022-09-21T13:42:37.395Z,99030.75
2022-09-21T13:45:18.974Z,99027.19
2022-09-21T13:47:52.976Z,99018.78
2022-09-21T13:50:37.556Z,99028.50
2022-09-21T13:53:16.600Z,99018.38
2022-09-21T13:56:09.219Z,99013.91
2022-09-21T13:58:44.000Z,99005.44
2022-09-21T14:01:45.593Z,98983.97
2022-09-21T14:04:30.988Z,99024.31
2022-09-21T14:07:04.632Z,99005.44
2022-09-21T14:09:43.008Z,99001.81
2022-09-21T14:12:23.886Z,98997.44
2022-09-21T14:15:18.849Z,99006.94
2022-09-21T14:18:08.040Z,99018.22
2022-09-21T14:20:39.996Z,99009.63
2022-09-21T14:23:19.645Z,99026.44
2022-09-21T14:25:56.660Z,99000.56
2022-09-21T14:28:39.338Z,99025.72
2022-09-21T14:31:19.431Z,99020.75
2022-09-21T14:33:55.861Z,99021.66
2022-09-21T14:36:34.716Z,99009.66
2022-09-21T14:39:04.948Z,99022.69
2022-09-21T14:41:39.946Z,99008.91
2022-09-21T14:44:14.784Z,99008.94
2022-09-21T14:47:02.441Z,99014.97
2022-09-21T14:49:46.737Z,99017.78
2022-09-21T14:52:56.389Z,99033.44
2022-09-21T14:55:40.858Z,98958.53
2022-09-21T14:58:46.745Z,99026.50
2022-09-21T15:01:38.332Z,99021.59
2022-09-21T15:04:29.574Z,99025.06
2022-09-21T15:07:27.993Z,99024.34
2022-09-21T15:10:24.884Z,99027.03
2022-09-21T15:12:58.539Z,99003.88
2022-09-21T15:15:54.928Z,99041.81
2022-09-21T15:18:23.142Z,99047.16
2022-09-21T15:21:02.463Z,99052.50
2022-09-21T15:23:41.008Z,99072.06
2022-09-21T15:26:29.476Z,99072.75
2022-09-21T15:29:18.389Z,99087.25
2022-09-21T15:31:45.759Z,99082.44
2022-09-21T15:34:17.282Z,99075.88
2022-09-21T15:36:45.052Z,99072.50
2022-09-21T15:39:22.330Z,99069.91
2022-09-21T15:42:00.005Z,99080.38
2022-09-21T15:44:33.333Z,99067.31
2022-09-21T15:47:03.411Z,99060.34
2022-09-21T15:49:31.116Z,99076.66
2022-09-21T15:52:02.487Z,99075.81
2022-09-21T15:54:35.998Z,99060.91
2022-09-21T15:57:09.238Z,99067.72
2022-09-21T15:59:36.393Z,99085.06
2022-09-21T16:02:16.694Z,99074.59
2022-09-21T16:04:52.445Z,99075.44
2022-09-21T16:07:31.988Z,99093.63
2022-09-21T16:10:00.101Z,99078.91
2022-09-21T16:12:39.576Z,99073.69
2022-09-21T16:15:15.696Z,99070.25
2022-09-21T16:18:02.050Z,99098.91
2022-09-21T16:20:39.856Z,99097.22
2022-09-21T16:23:14.736Z,99097.97
2022-09-21T16:25:43.212Z,99109.34
2022-09-21T16:28:19.210Z,99108.31
2022-09-21T16:30:51.677Z,99099.66
2022-09-21T16:33:41.161Z,99113.44
2022-09-21T16:36:17.733Z,99129.16
2022-09-21T16:38:47.236Z,99133.56
2022-09-21T16:41:17.197Z,99137.16
2022-09-21T16:43:44.684Z,99132.81
2022-09-21T16:46:15.007Z,99138.06
2022-09-21T16:48:42.134Z,99122.56
2022-09-21T16:51:13.331Z,99117.53
2022-09-21T16:53:43.765Z,99142.88
2022-09-21T16:56:15.919Z,99139.56
2022-09-21T16:58:44.285Z,99130.41
2022-09-21T17:01:18.854Z,99153.97
2022-09-21T17:03:48.031Z,99149.91
2022-09-21T17:06:20.175Z,99164.22
2022-09-21T17:08:50.291Z,99153.16
2022-09-21T17:11:20.382Z,99157.56
2022-09-21T17:13:48.742Z,99159.31
2022-09-21T17:16:18.517Z,99151.56
2022-09-21T17:18:47.034Z,99147.19
2022-09-21T17:21:28.285Z,99142.31
2022-09-21T17:23:55.558Z,99146.50
2022-09-21T17:26:24.803Z,99131.84
2022-09-21T17:28:53.553Z,99125.88
2022-09-21T17:31:23.593Z,99133.63
2022-09-21T17:33:51.571Z,99133.50
2022-09-21T17:36:19.087Z,99125.72
2022-09-21T17:38:46.379Z,99133.47
2022-09-21T17:41:32.590Z,99136.00
2022-09-21T17:44:10.024Z,99141.22
2022-09-21T17:47:22.278Z,99119.56
2022-09-21T17:49:49.925Z,99127.34
2022-09-21T17:52:42.921Z,99128.16
2022-09-21T17:55:14.239Z,99073.53
2022-09-21T17:58:08.266Z,99143.56
2022-09-21T18:00:52.744Z,99130.56
2022-09-21T18:03:37.662Z,99134.88
2022-09-21T18:06:05.922Z,99140.91
2022-09-21T18:08:36.981Z,99135.66
2022-09-21T18:11:27.697Z,99136.41
2022-09-21T18:14:40.426Z,99133.78
2022-09-21T18:17:58.903Z,99138.03
2022-09-21T18:20:48.593Z,99148.50
2022-09-21T18:23:33.716Z,99147.75
2022-09-21T18:26:01.552Z,99157.41
2022-09-21T18:28:32.034Z,99160.03
2022-09-21T18:31:17.501Z,99166.16
2022-09-21T18:34:05.607Z,99153.22
2022-09-21T18:36:52.830Z,99158.41
2022-09-21T18:39:44.865Z,99120.47
2022-09-21T18:42:50.888Z,99162.78
2022-09-21T18:45:37.817Z,99134.16
2022-09-21T18:48:38.947Z,99149.63
2022-09-21T18:51:29.798Z,99155.53
2022-09-21T18:53:57.829Z,99141.53
2022-09-21T18:56:27.691Z,99124.16
2022-09-21T18:58:58.376Z,99143.13
2022-09-21T19:01:29.328Z,99143.97
2022-09-21T19:03:57.413Z,99138.63
2022-09-21T19:06:46.656Z,99126.38
2022-09-21T19:09:20.433Z,99148.91
2022-09-21T19:12:13.426Z,99156.81
2022-09-21T19:14:52.836Z,99160.44
2022-09-21T19:17:38.900Z,99166.63
2022-09-21T19:20:30.486Z,99164.09
2022-09-21T19:23:18.387Z,99156.31
2022-09-21T19:25:50.100Z,99155.53
2022-09-21T19:28:29.261Z,99162.38
2022-09-21T19:31:08.809Z,99145.78
2022-09-21T19:33:49.987Z,99154.44
2022-09-21T19:36:19.091Z,99144.78
2022-09-21T19:38:49.750Z,99142.13
2022-09-21T19:41:47.799Z,99141.94
2022-09-21T19:44:27.957Z,99148.84
2022-09-21T19:47:16.985Z,99149.72
2022-09-21T19:49:50.240Z,99146.25
2022-09-21T19:52:19.552Z,99154.91
2022-09-21T19:55:05.687Z,99148.88
2022-09-21T19:57:52.723Z,99149.78
2022-09-21T20:00:21.501Z,99141.09
2022-09-21T20:03:05.947Z,99143.56
2022-09-21T20:05:58.812Z,99147.94
2022-09-21T20:12:22.010Z,99141.94
2022-09-21T20:14:58.082Z,99131.63
2022-09-21T20:17:33.956Z,99115.28
2022-09-21T20:20:18.112Z,99146.31
2022-09-21T20:22:47.638Z,99128.91
2022-09-21T20:25:23.896Z,99122.81
2022-09-21T20:27:58.627Z,99132.22
2022-09-21T20:30:32.901Z,99123.56
2022-09-21T20:33:09.601Z,99120.88
2022-09-21T20:35:36.808Z,99106.91
2022-09-21T20:38:04.066Z,99120.66
2022-09-21T20:40:32.428Z,99121.47
2022-09-21T20:43:01.392Z,99110.91
2022-09-21T20:45:30.096Z,99093.50
2022-09-21T20:48:15.906Z,99104.69
2022-09-21T20:50:49.203Z,99114.13
2022-09-21T20:53:17.344Z,99105.38
2022-09-21T20:55:54.564Z,99110.41
2022-09-21T20:58:22.738Z,99107.19
2022-09-21T21:00:52.190Z,99105.56
2022-09-21T21:03:21.173Z,99090.09
2022-09-21T21:05:48.302Z,99103.22
2022-09-21T21:08:15.603Z,99098.19
2022-09-21T21:10:48.894Z,99090.31
2022-09-21T21:13:16.601Z,99095.59
2022-09-21T21:15:43.587Z,99079.22
2022-09-21T21:18:12.520Z,99106.13
2022-09-21T21:20:41.194Z,99104.44
2022-09-21T21:23:08.813Z,99105.41
2022-09-21T21:25:36.195Z,99088.03
2022-09-21T21:28:04.130Z,99099.41
2022-09-21T21:30:31.704Z,99091.66
2022-09-21T21:32:58.961Z,99105.56
2022-09-21T21:35:26.126Z,99111.63
2022-09-21T21:37:53.227Z,99114.22
2022-09-21T21:40:21.603Z,99108.25
2022-09-21T21:42:48.741Z,99110.88
2022-09-21T21:45:15.761Z,99125.72
2022-09-21T21:47:42.904Z,99118.75
2022-09-21T21:50:11.076Z,99111.81
2022-09-21T21:52:38.232Z,99109.13
2022-09-21T21:55:06.202Z,99108.19
2022-09-21T21:57:33.388Z,99104.72
2022-09-21T22:00:00.485Z,99107.38
2022-09-21T22:02:29.433Z,99116.13
2022-09-21T22:04:56.642Z,99111.72
2022-09-21T22:07:26.540Z,99111.69
2022-09-21T22:09:53.684Z,99107.38
2022-09-21T22:12:22.143Z,99098.03
2022-09-21T22:14:49.601Z,99117.06
2022-09-21T22:17:16.838Z,99111.72
2022-09-21T22:19:44.134Z,99105.59
2022-09-21T22:22:11.183Z,99094.44
2022-09-21T22:24:38.168Z,99099.72
2022-09-21T22:27:05.313Z,99104.03
2022-09-21T22:29:32.250Z,99101.41
2022-09-21T22:32:00.158Z,99093.59
2022-09-21T22:34:27.886Z,99085.75
2022-09-21T22:36:56.448Z,99104.06
2022-09-21T22:39:23.503Z,99102.16
2022-09-21T22:42:08.898Z,99088.31
2022-09-21T22:44:36.039Z,99095.16
2022-09-21T22:47:03.635Z,99096.13
2022-09-21T22:49:30.694Z,99114.31
2022-09-21T22:51:57.756Z,99107.34
2022-09-21T22:54:24.863Z,99111.72
2022-09-21T22:56:51.882Z,99106.44
2022-09-21T22:59:18.830Z,99100.31
2022-09-21T23:01:46.245Z,99099.47
2022-09-21T23:04:14.286Z,99102.03
2022-09-21T23:06:43.709Z,99106.38
2022-09-21T23:09:19.875Z,99095.25
2022-09-21T23:11:53.361Z,99089.94
2022-09-21T23:14:22.061Z,99093.44
2022-09-21T23:16:49.230Z,99098.59
2022-09-21T23:19:16.605Z,99095.06
2022-09-21T23:21:52.937Z,99088.22
2022-09-21T23:24:20.762Z,99090.72
2022-09-21T23:26:49.155Z,99089.81
2022-09-21T23:29:16.689Z,99074.19
2022-09-21T23:31:45.692Z,99088.13
2022-09-21T23:34:14.467Z,99089.81
2022-09-21T23:36:42.882Z,99098.59
2022-09-21T23:39:12.900Z,99103.03
2022-09-21T23:41:40.320Z,99094.28
2022-09-21T23:44:07.690Z,99085.59
2022-09-21T23:46:37.198Z,99077.72
2022-09-21T23:49:04.883Z,99085.47
2022-09-21T23:51:32.135Z,99074.94
2022-09-21T23:54:00.021Z,99078.44
2022-09-21T23:56:28.664Z,99080.19
2022-09-21T23:58:56.022Z,99079.34
